Time;durP1;ratioP1;P1;durP2;ratioP2;P2;SDS_P1;SDS_P2;PMS_P1;PMS_P2;Temp;Humidity;BMP_temperature;BMP_pressure;BME280_temperature;BME280_humidity;BME280_pressure;Samples;Min_cycle;Max_cycle;Signal;HPM_P1;HPM_P2
2021/12/31 00:00:08;;;;;;;3.00;2.07;;;14.30;84.40;;;;;;4963718;28;21098;-73
2021/12/31 00:02:34;;;;;;;2.60;1.73;;;14.30;84.60;;;;;;4957718;28;20216;-73
2021/12/31 00:05:00;;;;;;;3.90;2.00;;;14.30;84.40;;;;;;4952834;28;20436;-73
2021/12/31 00:07:26;;;;;;;3.20;1.87;;;14.20;84.40;;;;;;4954406;28;20247;-74
2021/12/31 00:09:51;;;;;;;2.20;1.30;;;14.20;84.10;;;;;;4953511;28;20282;-72
2021/12/31 00:12:17;;;;;;;3.60;1.60;;;14.30;83.70;;;;;;4959881;28;20219;-75
2021/12/31 00:14:43;;;;;;;2.20;1.80;;;14.20;84.00;;;;;;4958288;28;20200;-73
2021/12/31 00:17:09;;;;;;;2.23;1.60;;;14.20;83.70;;;;;;4957584;28;20223;-72
2021/12/31 00:19:41;;;;;;;5.27;2.00;;;14.20;83.80;;;;;;4961232;28;20191;-73
2021/12/31 00:24:55;;;;;;;3.27;1.63;;;14.20;84.00;;;;;;4935105;28;20423;-73
2021/12/31 00:27:21;;;;;;;2.27;1.60;;;14.20;84.30;;;;;;4958251;28;20428;-74
2021/12/31 00:29:47;;;;;;;2.57;1.40;;;14.10;84.40;;;;;;4953359;28;20195;-73
2021/12/31 00:32:13;;;;;;;2.97;1.63;;;14.10;84.60;;;;;;4957555;28;20219;-73
2021/12/31 00:34:39;;;;;;;2.33;1.40;;;14.10;85.00;;;;;;4954969;28;20223;-73
2021/12/31 00:37:04;;;;;;;3.20;1.80;;;14.10;85.60;;;;;;4951210;28;20463;-72
2021/12/31 00:39:30;;;;;;;2.40;1.60;;;14.00;85.90;;;;;;4957686;28;20228;-73
2021/12/31 00:41:56;;;;;;;2.63;1.50;;;14.00;86.50;;;;;;4952664;28;20208;-70
2021/12/31 00:44:24;;;;;;;1.70;1.40;;;13.90;86.80;;;;;;4965587;28;20682;-72
2021/12/31 00:46:50;;;;;;;2.27;1.63;;;13.90;87.00;;;;;;4958572;28;20424;-71
2021/12/31 00:49:15;;;;;;;3.30;1.80;;;13.90;87.30;;;;;;4960292;28;20578;-72
2021/12/31 00:51:41;;;;;;;1.83;1.50;;;13.80;87.60;;;;;;4955563;28;20479;-73
2021/12/31 00:54:07;;;;;;;1.93;1.60;;;13.80;87.70;;;;;;4954694;28;20218;-73
2021/12/31 00:56:33;;;;;;;1.90;1.70;;;13.80;87.80;;;;;;4959290;28;20251;-71
2021/12/31 00:58:58;;;;;;;2.23;1.70;;;13.70;88.10;;;;;;4962287;28;20188;-71
2021/12/31 01:01:25;;;;;;;3.43;1.60;;;13.70;88.40;;;;;;4962547;28;20220;-70
2021/12/31 01:03:51;;;;;;;6.03;1.90;;;13.60;88.60;;;;;;4957760;28;20183;-72
2021/12/31 01:06:17;;;;;;;3.17;1.83;;;13.60;88.70;;;;;;4965456;28;20513;-72
2021/12/31 01:08:43;;;;;;;2.07;1.63;;;13.60;88.70;;;;;;4962502;28;20583;-74
2021/12/31 01:11:10;;;;;;;2.43;1.60;;;13.60;88.90;;;;;;4965220;28;20183;-74
2021/12/31 01:13:53;;;;;;;4.43;1.97;;;13.60;89.00;;;;;;4950741;28;20286;-73
2021/12/31 01:16:21;;;;;;;3.10;1.60;;;13.50;89.00;;;;;;4957487;28;20430;-73
2021/12/31 01:21:20;;;;;;;2.60;2.00;;;13.60;88.90;;;;;;4953187;29;20483;-72
2021/12/31 01:23:50;;;;;;;3.10;1.90;;;13.50;88.70;;;;;;4957432;28;20438;-74
2021/12/31 01:26:17;;;;;;;2.73;1.53;;;13.60;88.40;;;;;;4956270;28;20435;-74
2021/12/31 01:28:42;;;;;;;4.13;1.80;;;13.60;88.10;;;;;;4973567;28;20424;-73
2021/12/31 01:31:08;;;;;;;2.27;1.50;;;13.50;88.00;;;;;;4976833;28;20502;-74
2021/12/31 01:33:34;;;;;;;3.13;1.93;;;13.50;88.10;;;;;;4970260;28;20211;-74
2021/12/31 01:36:00;;;;;;;2.73;1.60;;;13.50;88.40;;;;;;4970366;28;20517;-73
2021/12/31 01:38:26;;;;;;;2.47;1.83;;;13.50;88.40;;;;;;4975670;28;20444;-73
2021/12/31 01:40:53;;;;;;;2.70;1.70;;;13.40;88.60;;;;;;4975950;28;20206;-74
2021/12/31 01:43:19;;;;;;;2.33;1.70;;;13.30;88.60;;;;;;4973356;28;20511;-72
2021/12/31 01:45:54;;;;;;;4.73;1.80;;;13.20;88.90;;;;;;4983006;28;20418;-75
2021/12/31 01:51:12;;;;;;;3.20;1.63;;;13.10;89.30;;;;;;4949282;28;20439;-75
2021/12/31 01:53:37;;;;;;;2.97;1.70;;;13.10;89.30;;;;;;4976875;28;20446;-74
2021/12/31 01:56:04;;;;;;;2.10;1.60;;;13.00;89.50;;;;;;4974081;28;20219;-73
2021/12/31 01:58:30;;;;;;;3.97;2.13;;;13.00;89.50;;;;;;4973577;28;20187;-73
2021/12/31 02:00:58;;;;;;;3.23;1.83;;;12.90;89.90;;;;;;4974601;28;20484;-76
2021/12/31 02:03:24;;;;;;;2.93;1.83;;;12.90;89.90;;;;;;4973268;28;20447;-74
2021/12/31 02:05:50;;;;;;;3.23;1.87;;;12.80;90.10;;;;;;4970543;28;20452;-73
2021/12/31 02:08:18;;;;;;;2.00;1.70;;;12.70;90.10;;;;;;4967360;28;20479;-72
2021/12/31 02:10:44;;;;;;;4.03;2.00;;;12.60;90.30;;;;;;4965893;28;20180;-73
2021/12/31 02:13:10;;;;;;;2.10;1.43;;;12.60;90.40;;;;;;4970095;28;20518;-74
2021/12/31 02:15:36;;;;;;;3.43;1.90;;;12.60;90.40;;;;;;4967734;28;20266;-74
2021/12/31 02:18:03;;;;;;;2.53;1.93;;;12.50;90.50;;;;;;4957238;28;20424;-74
2021/12/31 02:20:43;;;;;;;1.60;1.40;;;12.40;90.60;;;;;;4957710;28;20466;-73
2021/12/31 02:23:25;;;;;;;2.37;1.80;;;12.40;90.70;;;;;;4953749;28;20945;-72
2021/12/31 02:25:53;;;;;;;2.47;1.50;;;12.40;90.70;;;;;;4956463;28;20576;-74
2021/12/31 02:28:19;;;;;;;2.50;1.60;;;12.30;90.80;;;;;;4962130;28;20446;-74
2021/12/31 02:30:46;;;;;;;2.60;1.90;;;12.20;91.00;;;;;;4961165;28;20421;-73
2021/12/31 02:33:11;;;;;;;2.93;1.80;;;12.20;91.10;;;;;;4957004;28;20456;-73
2021/12/31 02:35:38;;;;;;;2.50;1.70;;;12.20;91.10;;;;;;4959546;28;20423;-72
2021/12/31 02:38:06;;;;;;;2.93;1.80;;;12.20;91.10;;;;;;4956941;28;20188;-73
2021/12/31 02:40:33;;;;;;;2.30;1.90;;;12.20;91.10;;;;;;4961175;28;20474;-73
2021/12/31 02:42:59;;;;;;;3.20;1.80;;;12.10;91.20;;;;;;4958398;28;20510;-73
2021/12/31 02:45:30;;;;;;;3.00;1.60;;;12.20;91.20;;;;;;4963348;28;20447;-74
2021/12/31 02:47:59;;;;;;;4.90;2.20;;;12.20;91.10;;;;;;4951722;29;20427;-75
2021/12/31 02:50:33;;;;;;;3.90;2.10;;;12.10;91.10;;;;;;4958464;28;20522;-74
2021/12/31 02:53:00;;;;;;;3.77;1.90;;;12.10;91.00;;;;;;4953212;28;20806;-74
2021/12/31 02:55:30;;;;;;;4.07;1.97;;;12.10;91.10;;;;;;4956799;28;20449;-74
2021/12/31 02:57:57;;;;;;;3.03;1.63;;;12.00;91.30;;;;;;4951513;28;20826;-76
2021/12/31 03:00:23;;;;;;;2.17;1.60;;;12.00;91.30;;;;;;4959629;28;20479;-76
2021/12/31 03:02:49;;;;;;;3.23;2.03;;;12.00;91.40;;;;;;4961666;28;20454;-76
2021/12/31 03:05:16;;;;;;;3.20;2.00;;;12.00;91.50;;;;;;4958379;28;20432;-77
2021/12/31 03:07:45;;;;;;;4.60;2.17;;;11.90;91.50;;;;;;4953980;28;20423;-75
2021/12/31 03:10:11;;;;;;;3.90;2.00;;;11.90;91.70;;;;;;4957170;28;20426;-76
2021/12/31 03:12:39;;;;;;;4.73;1.97;;;11.80;91.90;;;;;;4954984;28;20507;-75
2021/12/31 03:15:05;;;;;;;2.87;1.90;;;11.70;92.00;;;;;;4952546;28;20485;-78
2021/12/31 03:17:32;;;;;;;3.77;1.93;;;11.70;92.10;;;;;;4955149;28;20434;-75
2021/12/31 03:20:09;;;;;;;2.30;1.60;;;11.70;92.10;;;;;;4957391;28;20471;-77
2021/12/31 03:22:36;;;;;;;3.43;1.57;;;11.60;92.20;;;;;;4956488;28;20454;-76
2021/12/31 03:25:02;;;;;;;2.37;1.80;;;11.50;92.50;;;;;;4959506;28;20443;-77
2021/12/31 03:27:27;;;;;;;3.20;1.70;;;11.40;92.70;;;;;;4957632;28;20910;-76
2021/12/31 03:29:53;;;;;;;4.80;1.77;;;11.40;92.80;;;;;;4955905;28;20763;-75
2021/12/31 03:32:19;;;;;;;3.47;1.80;;;11.40;92.90;;;;;;4955404;28;20215;-75
2021/12/31 03:34:44;;;;;;;2.80;1.83;;;11.30;93.00;;;;;;4960637;28;20242;-76
2021/12/31 03:37:10;;;;;;;2.87;1.70;;;11.30;93.10;;;;;;4957746;28;20267;-75
2021/12/31 03:39:36;;;;;;;3.20;1.80;;;11.30;93.20;;;;;;4959243;28;20208;-74
2021/12/31 03:42:02;;;;;;;6.67;2.53;;;11.20;93.10;;;;;;4958922;28;20439;-74
2021/12/31 03:44:28;;;;;;;3.43;2.07;;;11.20;93.20;;;;;;4957592;28;20198;-76
2021/12/31 03:46:53;;;;;;;4.00;1.93;;;11.20;93.30;;;;;;4955717;28;20442;-73
2021/12/31 03:49:19;;;;;;;3.43;2.23;;;11.20;93.20;;;;;;4960530;28;20667;-74
2021/12/31 03:51:45;;;;;;;2.00;1.70;;;11.30;93.20;;;;;;4958348;28;20208;-72
2021/12/31 03:54:11;;;;;;;3.87;2.20;;;11.30;92.90;;;;;;4972896;28;20234;-74
2021/12/31 03:56:36;;;;;;;3.47;2.13;;;11.30;93.00;;;;;;4960731;28;20272;-74
2021/12/31 03:59:02;;;;;;;6.53;2.20;;;11.30;92.80;;;;;;4964019;28;20188;-74
2021/12/31 04:01:28;;;;;;;4.00;2.50;;;11.20;92.90;;;;;;4963629;28;20303;-73
2021/12/31 04:03:55;;;;;;;3.57;2.50;;;11.10;93.10;;;;;;4958138;28;20952;-73
2021/12/31 04:06:21;;;;;;;5.63;2.47;;;11.10;93.20;;;;;;4958597;28;20427;-74
2021/12/31 04:08:48;;;;;;;5.47;2.00;;;11.00;93.50;;;;;;4957325;28;20785;-75
2021/12/31 04:11:14;;;;;;;2.70;2.20;;;11.00;93.50;;;;;;4961401;28;20432;-75
2021/12/31 04:13:40;;;;;;;7.00;2.40;;;11.00;93.60;;;;;;4951648;28;20450;-73
2021/12/31 04:16:06;;;;;;;3.20;2.33;;;10.90;93.60;;;;;;4954609;28;20431;-74
2021/12/31 04:18:32;;;;;;;4.83;2.53;;;10.90;93.70;;;;;;4961832;28;20191;-74
2021/12/31 04:20:58;;;;;;;3.80;2.30;;;10.90;93.80;;;;;;4954192;28;20729;-73
2021/12/31 04:23:37;;;;;;;3.50;2.70;;;10.80;93.80;;;;;;4954372;28;20208;-73
2021/12/31 04:26:05;;;;;;;4.77;2.63;;;10.80;93.90;;;;;;4950073;28;20586;-74
2021/12/31 04:28:31;;;;;;;7.23;2.90;;;10.80;93.90;;;;;;4956890;28;20422;-75
2021/12/31 04:30:57;;;;;;;4.03;2.60;;;10.70;93.90;;;;;;4953571;28;20641;-75
2021/12/31 04:33:23;;;;;;;9.80;2.83;;;10.70;94.00;;;;;;4952624;28;20713;-74
2021/12/31 04:35:49;;;;;;;4.20;2.30;;;10.60;94.20;;;;;;4951596;28;20415;-73
2021/12/31 04:38:15;;;;;;;4.20;2.50;;;10.60;94.30;;;;;;4951595;29;20977;-73
2021/12/31 04:40:41;;;;;;;3.90;2.17;;;10.60;94.40;;;;;;4961203;28;20222;-74
2021/12/31 04:43:06;;;;;;;3.77;2.47;;;10.50;94.40;;;;;;4953486;28;20216;-74
2021/12/31 04:45:32;;;;;;;2.67;2.43;;;10.40;94.40;;;;;;4953907;28;20940;-74
2021/12/31 04:47:58;;;;;;;4.70;2.43;;;10.30;94.60;;;;;;4958845;28;20554;-74
2021/12/31 04:50:23;;;;;;;4.60;2.77;;;10.30;94.90;;;;;;4952306;28;20229;-74
2021/12/31 04:52:49;;;;;;;5.10;2.60;;;10.30;95.00;;;;;;4953333;28;20211;-74
2021/12/31 04:55:15;;;;;;;6.57;3.10;;;10.30;95.00;;;;;;4957770;28;20274;-73
2021/12/31 04:57:42;;;;;;;2.93;2.13;;;10.20;95.00;;;;;;4967106;28;20211;-74
2021/12/31 05:00:09;;;;;;;3.50;2.50;;;10.20;95.10;;;;;;4958283;28;20204;-74
2021/12/31 05:02:34;;;;;;;4.70;2.30;;;10.20;95.20;;;;;;4959285;28;20478;-75
2021/12/31 05:05:01;;;;;;;5.10;2.30;;;10.10;95.40;;;;;;4960662;28;20423;-74
2021/12/31 05:07:28;;;;;;;8.53;2.67;;;10.10;95.50;;;;;;4958579;28;20210;-73
2021/12/31 05:09:54;;;;;;;3.10;2.33;;;10.10;95.60;;;;;;4955935;28;20462;-73
2021/12/31 05:12:25;;;;;;;6.43;2.17;;;10.10;95.60;;;;;;4959096;28;20439;-74
2021/12/31 05:14:51;;;;;;;3.67;2.57;;;10.10;95.60;;;;;;4963058;28;20202;-73
2021/12/31 05:17:17;;;;;;;4.53;2.83;;;10.10;95.60;;;;;;4961430;28;20423;-74
2021/12/31 05:19:44;;;;;;;5.57;2.40;;;10.10;95.50;;;;;;4962326;29;20196;-73
2021/12/31 05:22:13;;;;;;;4.93;2.30;;;10.10;95.50;;;;;;4966093;28;20709;-73
2021/12/31 05:24:39;;;;;;;4.60;2.30;;;10.10;95.50;;;;;;4960289;28;20481;-74
2021/12/31 05:27:05;;;;;;;5.47;2.50;;;10.10;95.50;;;;;;4963895;28;20422;-74
2021/12/31 05:29:32;;;;;;;4.57;2.40;;;10.10;95.40;;;;;;4972719;28;20430;-74
2021/12/31 05:31:58;;;;;;;3.90;2.17;;;10.00;95.40;;;;;;4970069;28;20436;-74
2021/12/31 05:34:23;;;;;;;3.90;2.10;;;10.00;95.40;;;;;;4964050;28;20522;-74
2021/12/31 05:36:49;;;;;;;6.63;2.70;;;9.90;95.40;;;;;;4967170;28;20195;-74
2021/12/31 05:39:15;;;;;;;5.30;2.40;;;9.90;95.50;;;;;;4964622;28;20206;-74
2021/12/31 05:41:41;;;;;;;3.57;2.50;;;9.90;95.50;;;;;;4970546;28;20568;-74
2021/12/31 05:44:07;;;;;;;5.70;2.77;;;9.80;95.60;;;;;;4965955;28;20183;-74
2021/12/31 05:46:34;;;;;;;6.33;2.30;;;9.80;95.60;;;;;;4963324;28;20439;-74
2021/12/31 05:49:00;;;;;;;3.90;2.53;;;9.80;95.80;;;;;;4971116;28;20431;-74
2021/12/31 05:51:27;;;;;;;6.87;2.93;;;9.70;95.90;;;;;;4967598;28;20432;-74
2021/12/31 05:53:54;;;;;;;3.37;2.60;;;9.70;96.00;;;;;;4963701;28;20526;-74
2021/12/31 05:56:20;;;;;;;4.03;2.30;;;9.70;96.00;;;;;;4957850;28;20431;-76
2021/12/31 05:58:46;;;;;;;3.40;2.40;;;9.70;96.20;;;;;;4963426;28;20439;-76
2021/12/31 06:01:12;;;;;;;4.13;2.17;;;9.70;96.40;;;;;;4953940;28;20475;-74
2021/12/31 06:03:37;;;;;;;4.47;2.37;;;9.70;96.50;;;;;;4954060;28;20443;-74
2021/12/31 06:06:04;;;;;;;4.10;2.20;;;9.70;96.60;;;;;;4960652;28;20191;-74
2021/12/31 06:08:30;;;;;;;3.83;2.57;;;9.70;96.60;;;;;;4952446;28;20191;-73
2021/12/31 06:10:56;;;;;;;5.30;2.93;;;9.70;96.50;;;;;;4959632;28;20992;-74
2021/12/31 06:13:22;;;;;;;4.87;2.93;;;9.70;96.60;;;;;;4952699;28;20219;-74
2021/12/31 06:15:55;;;;;;;4.17;2.43;;;9.70;96.40;;;;;;4952934;28;20499;-74
2021/12/31 06:18:21;;;;;;;4.90;2.60;;;9.70;96.60;;;;;;4951603;28;20443;-74
2021/12/31 06:20:46;;;;;;;3.67;2.37;;;9.60;96.60;;;;;;4951403;28;20538;-74
2021/12/31 06:23:12;;;;;;;4.23;2.57;;;9.70;96.70;;;;;;4962165;28;20459;-74
2021/12/31 06:25:38;;;;;;;3.57;2.00;;;9.70;96.70;;;;;;4955922;28;20527;-74
2021/12/31 06:28:04;;;;;;;6.37;2.60;;;9.70;96.60;;;;;;4958130;28;20278;-74
2021/12/31 06:30:30;;;;;;;5.20;2.33;;;9.60;96.50;;;;;;4956010;28;20207;-74
2021/12/31 06:32:55;;;;;;;4.90;2.27;;;9.60;96.50;;;;;;4961277;28;20207;-74
2021/12/31 06:35:21;;;;;;;6.63;2.47;;;9.60;96.50;;;;;;4957778;28;20202;-73
2021/12/31 06:37:53;;;;;;;4.40;2.50;;;9.60;96.70;;;;;;4957948;28;20226;-73
2021/12/31 06:40:18;;;;;;;5.53;2.57;;;9.60;96.60;;;;;;4953746;28;20980;-74
2021/12/31 06:42:44;;;;;;;6.60;2.17;;;9.60;96.70;;;;;;4953694;28;20526;-73
2021/12/31 06:45:10;;;;;;;6.53;3.10;;;9.60;96.70;;;;;;4955585;28;20942;-73
2021/12/31 06:47:36;;;;;;;4.20;2.60;;;9.50;96.80;;;;;;4957852;28;20188;-74
2021/12/31 06:50:04;;;;;;;4.00;2.37;;;9.60;96.90;;;;;;4962317;28;20427;-73
2021/12/31 06:52:29;;;;;;;4.07;2.77;;;9.60;96.90;;;;;;4960073;28;20450;-73
2021/12/31 06:54:55;;;;;;;4.80;2.57;;;9.60;96.80;;;;;;4955256;28;20443;-74
2021/12/31 06:57:21;;;;;;;5.77;2.83;;;9.60;96.80;;;;;;4955558;28;20222;-73
2021/12/31 06:59:47;;;;;;;6.13;3.20;;;9.60;96.80;;;;;;4953212;28;20442;-74
2021/12/31 07:02:13;;;;;;;3.80;2.50;;;9.50;96.60;;;;;;4958548;28;20447;-73
2021/12/31 07:04:39;;;;;;;6.50;3.20;;;9.50;96.60;;;;;;4951337;28;20196;-75
2021/12/31 07:07:05;;;;;;;8.33;2.50;;;9.60;96.60;;;;;;4955753;28;20634;-75
2021/12/31 07:09:31;;;;;;;4.60;2.83;;;9.60;96.60;;;;;;4961698;28;20206;-74
2021/12/31 07:11:58;;;;;;;5.13;3.20;;;9.60;96.50;;;;;;4965972;28;20958;-73
2021/12/31 07:14:23;;;;;;;4.73;3.00;;;9.50;96.40;;;;;;4962361;28;20437;-74
2021/12/31 07:16:49;;;;;;;4.50;2.90;;;9.50;96.50;;;;;;4957560;28;20197;-75
2021/12/31 07:19:15;;;;;;;5.47;3.60;;;9.50;96.70;;;;;;4958400;28;20199;-74
2021/12/31 07:21:40;;;;;;;5.30;2.93;;;9.50;96.50;;;;;;4961892;28;20214;-74
2021/12/31 07:24:06;;;;;;;8.03;3.00;;;9.50;96.40;;;;;;4963302;28;20196;-75
2021/12/31 07:26:32;;;;;;;6.60;3.40;;;9.50;96.30;;;;;;4964319;28;20194;-75
2021/12/31 07:28:57;;;;;;;5.67;2.93;;;9.50;96.20;;;;;;4957394;28;20198;-74
2021/12/31 07:31:23;;;;;;;4.87;2.90;;;9.50;96.10;;;;;;4962912;28;20577;-74
2021/12/31 07:33:49;;;;;;;5.03;2.90;;;9.50;96.10;;;;;;4959293;28;20218;-75
2021/12/31 07:36:14;;;;;;;3.80;2.70;;;9.60;96.70;;;;;;4968071;28;20538;-74
2021/12/31 07:38:47;;;;;;;4.87;2.57;;;9.70;97.10;;;;;;4963692;28;20547;-74
2021/12/31 07:41:13;;;;;;;4.40;2.80;;;9.70;96.90;;;;;;4952479;28;20250;-74
2021/12/31 07:43:38;;;;;;;7.37;4.20;;;9.80;96.90;;;;;;4961537;28;20566;-73
2021/12/31 07:46:04;;;;;;;4.13;2.80;;;9.80;97.10;;;;;;4957673;28;20202;-74
2021/12/31 07:48:30;;;;;;;6.67;3.67;;;9.80;96.90;;;;;;4962668;28;20188;-74
2021/12/31 07:50:56;;;;;;;3.50;2.60;;;9.80;96.70;;;;;;4961062;28;20188;-74
2021/12/31 07:53:22;;;;;;;6.43;3.30;;;9.80;96.40;;;;;;4964750;28;20575;-73
2021/12/31 07:55:48;;;;;;;5.50;3.27;;;9.80;96.30;;;;;;4957171;28;20199;-74
2021/12/31 07:58:13;;;;;;;6.40;3.50;;;9.80;96.40;;;;;;4981361;28;20427;-73
2021/12/31 08:00:39;;;;;;;5.20;3.37;;;9.90;96.50;;;;;;4966260;28;20462;-74
2021/12/31 08:03:05;;;;;;;6.40;3.60;;;9.90;96.70;;;;;;4962136;28;20211;-74
2021/12/31 08:05:32;;;;;;;7.73;3.87;;;10.00;96.80;;;;;;4968505;28;20456;-75
2021/12/31 08:08:00;;;;;;;8.47;3.47;;;10.00;96.90;;;;;;4966772;28;20438;-73
2021/12/31 08:10:26;;;;;;;6.40;4.10;;;10.00;97.00;;;;;;4978386;28;20429;-74
2021/12/31 08:12:51;;;;;;;9.60;3.80;;;10.00;97.00;;;;;;4971315;28;20443;-74
2021/12/31 08:15:17;;;;;;;5.23;3.37;;;10.10;97.00;;;;;;4965866;28;20188;-75
2021/12/31 08:17:43;;;;;;;8.43;4.00;;;10.10;96.90;;;;;;4960356;28;20332;-72
2021/12/31 08:20:09;;;;;;;7.20;3.80;;;10.10;97.00;;;;;;4961475;28;20291;-73
2021/12/31 08:22:36;;;;;;;5.07;3.47;;;10.10;96.90;;;;;;4955934;28;20231;-74
2021/12/31 08:25:02;;;;;;;6.33;3.57;;;10.20;97.00;;;;;;4955737;29;20420;-73
2021/12/31 08:27:28;;;;;;;7.53;3.53;;;10.20;96.90;;;;;;4956420;28;20906;-74
2021/12/31 08:29:54;;;;;;;7.00;4.10;;;10.30;96.80;;;;;;4956514;28;20507;-75
2021/12/31 08:32:20;;;;;;;6.87;3.30;;;10.30;96.70;;;;;;4954693;28;20207;-73
2021/12/31 08:34:45;;;;;;;12.40;4.23;;;10.40;96.60;;;;;;4956728;28;20214;-74
2021/12/31 08:37:11;;;;;;;7.43;4.30;;;10.40;96.50;;;;;;4955375;28;20218;-73
2021/12/31 08:39:37;;;;;;;9.63;4.80;;;10.40;96.30;;;;;;4959481;28;20219;-73
2021/12/31 08:42:03;;;;;;;9.30;4.50;;;10.50;96.30;;;;;;4954892;28;20215;-72
2021/12/31 08:44:29;;;;;;;8.50;4.77;;;10.50;96.30;;;;;;4957851;28;20198;-73
2021/12/31 08:46:55;;;;;;;8.57;4.80;;;10.50;96.20;;;;;;4954423;28;20427;-73
2021/12/31 08:49:21;;;;;;;7.90;4.20;;;10.50;96.30;;;;;;4958691;28;20655;-74
2021/12/31 08:51:47;;;;;;;12.50;5.20;;;10.50;96.30;;;;;;4953583;29;20204;-75
2021/12/31 08:54:13;;;;;;;8.33;4.03;;;10.60;96.30;;;;;;4955452;28;21030;-76
2021/12/31 08:56:39;;;;;;;9.50;4.67;;;10.60;96.10;;;;;;4957231;28;20522;-75
2021/12/31 08:59:04;;;;;;;8.63;5.47;;;10.70;96.00;;;;;;4955881;28;20757;-76
2021/12/31 09:01:30;;;;;;;13.60;5.70;;;10.70;96.00;;;;;;4955632;28;20495;-77
2021/12/31 09:03:56;;;;;;;9.87;5.10;;;10.70;95.70;;;;;;4954875;28;20224;-76
2021/12/31 09:06:22;;;;;;;12.97;5.33;;;10.80;95.70;;;;;;4952599;28;20427;-75
2021/12/31 09:08:48;;;;;;;12.00;4.83;;;10.80;95.50;;;;;;4954530;28;20188;-76
2021/12/31 09:11:15;;;;;;;10.83;4.83;;;10.80;95.50;;;;;;4960284;28;20609;-76
2021/12/31 09:13:42;;;;;;;8.67;4.20;;;10.90;95.40;;;;;;4952220;28;20447;-75
2021/12/31 09:16:11;;;;;;;10.50;5.20;;;11.00;95.30;;;;;;4954572;28;20459;-74
2021/12/31 09:18:37;;;;;;;8.80;5.57;;;11.10;95.10;;;;;;4956728;28;20424;-73
2021/12/31 09:21:04;;;;;;;8.40;4.70;;;11.10;94.90;;;;;;4955344;28;20857;-76
2021/12/31 09:23:30;;;;;;;12.17;5.53;;;11.20;94.70;;;;;;4954617;28;20208;-74
2021/12/31 09:25:57;;;;;;;10.67;4.83;;;11.20;94.50;;;;;;4954829;28;20420;-74
2021/12/31 09:28:23;;;;;;;11.60;5.80;;;11.20;94.60;;;;;;4957762;28;20673;-74
2021/12/31 09:30:49;;;;;;;8.43;5.17;;;11.20;94.70;;;;;;4956266;28;20419;-74
2021/12/31 09:33:15;;;;;;;11.37;6.00;;;11.20;94.70;;;;;;4953122;28;20578;-74
2021/12/31 09:35:42;;;;;;;10.03;5.30;;;11.30;94.70;;;;;;4954455;28;20428;-75
2021/12/31 09:38:09;;;;;;;7.70;4.80;;;11.30;94.60;;;;;;4960649;28;20191;-73
2021/12/31 09:40:39;;;;;;;11.77;5.47;;;11.30;94.40;;;;;;4953783;28;20471;-73
2021/12/31 09:43:12;;;;;;;9.03;4.60;;;11.40;94.40;;;;;;4952869;29;20459;-74
2021/12/31 09:45:40;;;;;;;9.43;4.90;;;11.40;94.50;;;;;;4955105;29;20435;-74
2021/12/31 09:48:14;;;;;;;9.40;4.70;;;11.40;94.30;;;;;;4955512;28;20432;-73
2021/12/31 09:50:43;;;;;;;8.63;5.43;;;11.40;94.20;;;;;;4960750;28;20779;-75
2021/12/31 09:53:10;;;;;;;9.83;4.97;;;11.50;94.10;;;;;;4955439;29;20494;-75
2021/12/31 09:55:51;;;;;;;6.67;4.57;;;11.60;94.00;;;;;;4956838;28;20450;-75
2021/12/31 09:58:19;;;;;;;6.80;4.20;;;11.60;93.80;;;;;;4951867;28;20523;-73
2021/12/31 10:00:48;;;;;;;9.37;5.30;;;11.70;93.60;;;;;;4953253;28;20566;-74
2021/12/31 10:03:22;;;;;;;7.37;4.37;;;11.80;93.40;;;;;;4954419;28;20455;-74
2021/12/31 10:05:51;;;;;;;8.80;4.17;;;11.80;93.30;;;;;;4956361;28;20428;-74
2021/12/31 10:08:28;;;;;;;8.17;4.30;;;11.80;93.20;;;;;;4955650;28;20459;-76
2021/12/31 10:11:22;;;;;;;8.43;5.07;;;11.90;93.00;;;;;;4952880;28;20434;-73
2021/12/31 10:13:57;;;;;;;8.33;4.63;;;11.90;93.10;;;;;;4952114;28;20455;-77
2021/12/31 10:16:26;;;;;;;6.03;3.60;;;12.00;92.90;;;;;;4951082;29;20555;-74
2021/12/31 10:19:10;;;;;;;7.37;4.00;;;12.10;92.70;;;;;;4958918;28;20426;-74
2021/12/31 10:21:50;;;;;;;6.13;4.00;;;12.10;92.30;;;;;;4953195;28;20467;-75
2021/12/31 10:24:23;;;;;;;8.40;4.50;;;12.10;92.30;;;;;;4959466;28;20463;-74
2021/12/31 10:26:53;;;;;;;7.70;4.10;;;12.10;92.40;;;;;;4957411;28;20901;-73
2021/12/31 10:29:21;;;;;;;8.37;5.00;;;12.10;92.40;;;;;;4957304;28;20822;-73
2021/12/31 10:31:52;;;;;;;7.10;4.43;;;12.10;92.30;;;;;;4957506;28;20530;-74
2021/12/31 10:34:37;;;;;;;7.50;4.40;;;12.20;92.20;;;;;;4952867;28;20438;-74
2021/12/31 10:37:17;;;;;;;6.40;4.43;;;12.20;92.30;;;;;;4952508;28;20451;-74
2021/12/31 10:39:44;;;;;;;8.60;4.83;;;12.20;92.10;;;;;;4952401;29;20419;-74
2021/12/31 10:42:12;;;;;;;8.20;4.87;;;12.30;92.00;;;;;;4953070;28;20472;-72
2021/12/31 10:44:51;;;;;;;10.80;4.27;;;12.30;92.20;;;;;;4961884;28;20442;-73
2021/12/31 10:47:28;;;;;;;6.63;4.20;;;12.50;92.00;;;;;;4956186;28;20454;-73
2021/12/31 10:50:03;;;;;;;6.87;4.40;;;12.70;91.80;;;;;;4944600;28;20960;-75
2021/12/31 10:52:35;;;;;;;7.50;4.33;;;12.90;91.10;;;;;;4958923;28;20442;-75
2021/12/31 10:57:44;;;;;;;8.80;4.27;;;13.30;90.00;;;;;;4952393;28;20482;-74
2021/12/31 11:00:11;;;;;;;6.23;4.47;;;13.50;88.90;;;;;;4956418;28;20529;-75
2021/12/31 11:02:38;;;;;;;5.40;3.90;;;13.60;88.30;;;;;;4955968;28;20448;-74
2021/12/31 11:05:05;;;;;;;5.37;3.70;;;13.80;87.70;;;;;;4954439;28;20427;-74
2021/12/31 11:07:31;;;;;;;6.20;3.63;;;13.90;86.90;;;;;;4952711;28;20938;-75
2021/12/31 11:10:04;;;;;;;8.50;4.80;;;13.90;86.80;;;;;;4950864;29;20420;-74
2021/12/31 11:12:30;;;;;;;5.57;3.80;;;13.80;86.80;;;;;;4953761;28;20448;-74
2021/12/31 11:14:57;;;;;;;9.27;4.57;;;13.70;86.90;;;;;;4955245;28;20914;-75
2021/12/31 11:17:24;;;;;;;8.40;4.40;;;13.60;87.40;;;;;;4958496;28;20597;-74
2021/12/31 11:19:50;;;;;;;6.37;4.27;;;13.50;87.80;;;;;;4960953;28;20562;-74
2021/12/31 11:22:21;;;;;;;6.67;4.40;;;13.40;88.00;;;;;;4953804;29;20447;-74
2021/12/31 11:24:47;;;;;;;5.50;3.77;;;13.40;88.10;;;;;;4952844;28;21057;-75
2021/12/31 11:27:28;;;;;;;6.30;3.90;;;13.40;88.30;;;;;;4954170;28;20534;-75
2021/12/31 11:29:55;;;;;;;8.27;3.90;;;13.30;88.30;;;;;;4954263;29;20450;-75
2021/12/31 11:32:55;;;;;;;5.77;3.60;;;13.40;88.40;;;;;;4953920;28;20966;-74
2021/12/31 11:35:46;;;;;;;7.93;4.57;;;13.40;88.00;;;;;;4956333;28;20467;-74
2021/12/31 11:38:24;;;;;;;7.30;3.90;;;13.40;88.00;;;;;;4955072;28;20466;-73
2021/12/31 11:41:07;;;;;;;6.57;3.83;;;13.30;88.30;;;;;;4954018;29;20467;-74
2021/12/31 11:43:35;;;;;;;9.83;4.50;;;13.40;88.30;;;;;;4956359;28;20436;-74
2021/12/31 11:48:48;;;;;;;7.53;4.23;;;13.50;88.00;;;;;;4958862;28;20460;-74
2021/12/31 11:51:14;;;;;;;6.80;3.80;;;13.50;88.10;;;;;;4964591;28;20431;-75
2021/12/31 11:54:01;;;;;;;6.10;3.70;;;13.60;87.80;;;;;;4956574;28;20861;-75
2021/12/31 11:56:47;;;;;;;4.90;3.53;;;13.60;87.60;;;;;;4955116;28;20219;-74
2021/12/31 11:59:13;;;;;;;5.43;3.50;;;13.70;87.70;;;;;;4957449;29;20486;-75
2021/12/31 12:01:47;;;;;;;4.40;3.53;;;13.70;87.40;;;;;;4957352;28;20463;-74
2021/12/31 12:04:19;;;;;;;5.63;3.90;;;13.80;87.30;;;;;;4956762;28;20328;-74
2021/12/31 12:06:58;;;;;;;5.60;3.23;;;13.90;86.80;;;;;;4954854;29;20930;-75
2021/12/31 12:09:36;;;;;;;6.50;3.43;;;14.00;86.30;;;;;;4957771;28;20425;-75
2021/12/31 12:12:05;;;;;;;6.83;3.70;;;14.10;86.20;;;;;;4960154;28;20450;-75
2021/12/31 12:14:36;;;;;;;6.83;4.17;;;14.10;86.30;;;;;;4954915;28;20427;-77
2021/12/31 12:17:04;;;;;;;3.30;2.83;;;14.20;86.00;;;;;;4954596;28;20408;-74
2021/12/31 12:19:53;;;;;;;4.07;2.90;;;14.20;85.60;;;;;;4960617;28;20427;-75
2021/12/31 12:22:31;;;;;;;4.03;2.77;;;14.20;85.70;;;;;;4945739;29;20451;-74
2021/12/31 12:25:03;;;;;;;5.43;3.83;;;14.30;85.30;;;;;;4956763;28;20423;-75
2021/12/31 12:27:29;;;;;;;4.70;3.00;;;14.30;84.90;;;;;;4955504;28;20426;-74
2021/12/31 12:29:57;;;;;;;2.67;2.23;;;14.40;85.00;;;;;;4962344;28;20431;-74
2021/12/31 12:32:51;;;;;;;3.07;2.20;;;14.50;85.00;;;;;;4956181;28;20505;-74
2021/12/31 12:35:24;;;;;;;6.83;4.40;;;14.60;84.60;;;;;;4958502;28;20807;-75
2021/12/31 12:37:55;;;;;;;4.20;2.60;;;14.80;83.80;;;;;;4961816;28;20508;-75
2021/12/31 12:40:34;;;;;;;4.20;2.53;;;14.80;83.40;;;;;;4959343;28;20471;-74
2021/12/31 12:42:59;;;;;;;3.70;2.63;;;14.90;83.10;;;;;;4955162;28;20813;-76
2021/12/31 12:45:25;;;;;;;5.53;3.07;;;15.10;83.10;;;;;;4954754;28;20435;-74
2021/12/31 12:47:51;;;;;;;4.83;2.77;;;15.30;82.80;;;;;;4957801;28;20195;-75
2021/12/31 12:50:17;;;;;;;5.53;2.60;;;15.50;81.20;;;;;;4959300;28;20195;-75
2021/12/31 12:52:55;;;;;;;4.23;2.70;;;15.70;80.00;;;;;;4955860;28;20299;-75
2021/12/31 12:55:22;;;;;;;7.60;3.30;;;15.80;79.20;;;;;;4958059;28;20219;-75
2021/12/31 12:57:56;;;;;;;4.17;2.57;;;16.00;78.00;;;;;;4962343;28;20518;-74
2021/12/31 13:00:39;;;;;;;3.40;2.33;;;16.00;78.10;;;;;;4953480;28;20455;-74
2021/12/31 13:03:10;;;;;;;3.10;2.40;;;15.90;78.10;;;;;;4958501;28;20504;-74
2021/12/31 13:05:37;;;;;;;3.30;2.37;;;15.90;77.80;;;;;;4956880;28;20427;-74